sensor_id;sensor_type;location;lat;lon;timestamp;P1;durP1;ratioP1;P2;durP2;ratioP2
9388;SDS011;4734;52.778;6.798;2023-05-07T00:02:35;8.15;;;7.32;;
9388;SDS011;4734;52.778;6.798;2023-05-07T00:05:21;8.50;;;7.60;;
9388;SDS011;4734;52.778;6.798;2023-05-07T00:08:07;8.98;;;8.07;;
9388;SDS011;4734;52.778;6.798;2023-05-07T00:10:54;9.60;;;8.60;;
9388;SDS011;4734;52.778;6.798;2023-05-07T00:13:39;8.63;;;7.80;;
9388;SDS011;4734;52.778;6.798;2023-05-07T00:16:25;9.85;;;8.85;;
9388;SDS011;4734;52.778;6.798;2023-05-07T00:19:10;9.45;;;8.55;;
9388;SDS011;4734;52.778;6.798;2023-05-07T00:21:56;11.23;;;8.88;;
9388;SDS011;4734;52.778;6.798;2023-05-07T00:24:41;9.38;;;8.35;;
9388;SDS011;4734;52.778;6.798;2023-05-07T00:27:28;11.32;;;10.07;;
9388;SDS011;4734;52.778;6.798;2023-05-07T00:30:14;12.98;;;10.65;;
9388;SDS011;4734;52.778;6.798;2023-05-07T00:33:00;11.73;;;10.52;;
9388;SDS011;4734;52.778;6.798;2023-05-07T00:35:46;12.70;;;10.93;;
9388;SDS011;4734;52.778;6.798;2023-05-07T00:38:31;12.90;;;11.25;;
9388;SDS011;4734;52.778;6.798;2023-05-07T00:41:17;13.05;;;10.73;;
9388;SDS011;4734;52.778;6.798;2023-05-07T00:44:05;12.02;;;10.82;;
9388;SDS011;4734;52.778;6.798;2023-05-07T00:46:50;12.43;;;11.27;;
9388;SDS011;4734;52.778;6.798;2023-05-07T00:49:37;12.60;;;11.10;;
9388;SDS011;4734;52.778;6.798;2023-05-07T00:52:23;12.70;;;11.43;;
9388;SDS011;4734;52.778;6.798;2023-05-07T00:55:10;12.48;;;11.38;;
9388;SDS011;4734;52.778;6.798;2023-05-07T00:57:57;12.43;;;11.23;;
9388;SDS011;4734;52.778;6.798;2023-05-07T01:00:44;12.88;;;11.55;;
9388;SDS011;4734;52.778;6.798;2023-05-07T01:03:30;12.32;;;11.13;;
9388;SDS011;4734;52.778;6.798;2023-05-07T01:06:16;13.75;;;12.35;;
9388;SDS011;4734;52.778;6.798;2023-05-07T01:09:02;12.95;;;10.88;;
9388;SDS011;4734;52.778;6.798;2023-05-07T01:11:48;13.20;;;11.88;;
9388;SDS011;4734;52.778;6.798;2023-05-07T01:14:35;12.70;;;11.40;;
9388;SDS011;4734;52.778;6.798;2023-05-07T01:17:22;12.40;;;11.10;;
9388;SDS011;4734;52.778;6.798;2023-05-07T01:20:08;12.60;;;11.30;;
9388;SDS011;4734;52.778;6.798;2023-05-07T01:22:56;13.52;;;11.73;;
9388;SDS011;4734;52.778;6.798;2023-05-07T01:25:42;13.38;;;12.07;;
9388;SDS011;4734;52.778;6.798;2023-05-07T01:28:28;12.23;;;11.07;;
9388;SDS011;4734;52.778;6.798;2023-05-07T01:31:13;13.02;;;11.75;;
9388;SDS011;4734;52.778;6.798;2023-05-07T01:33:59;13.77;;;12.48;;
9388;SDS011;4734;52.778;6.798;2023-05-07T01:36:46;13.05;;;11.77;;
9388;SDS011;4734;52.778;6.798;2023-05-07T01:39:35;14.45;;;13.05;;
9388;SDS011;4734;52.778;6.798;2023-05-07T01:42:22;15.52;;;13.93;;
9388;SDS011;4734;52.778;6.798;2023-05-07T01:45:08;13.60;;;12.30;;
9388;SDS011;4734;52.778;6.798;2023-05-07T01:47:54;12.82;;;11.73;;
9388;SDS011;4734;52.778;6.798;2023-05-07T01:50:40;15.30;;;13.70;;
9388;SDS011;4734;52.778;6.798;2023-05-07T01:53:27;13.52;;;12.23;;
9388;SDS011;4734;52.778;6.798;2023-05-07T01:56:14;14.13;;;12.70;;
9388;SDS011;4734;52.778;6.798;2023-05-07T01:59:00;15.30;;;13.75;;
9388;SDS011;4734;52.778;6.798;2023-05-07T02:01:45;16.20;;;13.65;;
9388;SDS011;4734;52.778;6.798;2023-05-07T02:04:31;16.70;;;14.88;;
9388;SDS011;4734;52.778;6.798;2023-05-07T02:07:17;17.42;;;14.10;;
9388;SDS011;4734;52.778;6.798;2023-05-07T02:10:03;17.15;;;15.43;;
9388;SDS011;4734;52.778;6.798;2023-05-07T02:12:50;15.90;;;13.73;;
9388;SDS011;4734;52.778;6.798;2023-05-07T02:15:35;15.85;;;14.25;;
9388;SDS011;4734;52.778;6.798;2023-05-07T02:18:21;15.73;;;14.02;;
9388;SDS011;4734;52.778;6.798;2023-05-07T02:21:07;16.88;;;15.15;;
9388;SDS011;4734;52.778;6.798;2023-05-07T02:23:52;18.13;;;16.10;;
9388;SDS011;4734;52.778;6.798;2023-05-07T02:26:39;17.67;;;15.88;;
9388;SDS011;4734;52.778;6.798;2023-05-07T02:29:26;18.05;;;16.15;;
9388;SDS011;4734;52.778;6.798;2023-05-07T02:32:12;19.02;;;17.00;;
9388;SDS011;4734;52.778;6.798;2023-05-07T02:34:58;17.70;;;15.88;;
9388;SDS011;4734;52.778;6.798;2023-05-07T02:37:43;17.92;;;15.60;;
9388;SDS011;4734;52.778;6.798;2023-05-07T02:40:29;20.80;;;16.77;;
9388;SDS011;4734;52.778;6.798;2023-05-07T02:43:17;21.67;;;17.08;;
9388;SDS011;4734;52.778;6.798;2023-05-07T02:46:04;18.83;;;16.40;;
9388;SDS011;4734;52.778;6.798;2023-05-07T02:48:50;19.25;;;17.15;;
9388;SDS011;4734;52.778;6.798;2023-05-07T02:51:36;21.40;;;17.08;;
9388;SDS011;4734;52.778;6.798;2023-05-07T02:54:22;20.02;;;17.27;;
9388;SDS011;4734;52.778;6.798;2023-05-07T02:57:07;21.73;;;17.33;;
9388;SDS011;4734;52.778;6.798;2023-05-07T02:59:53;18.52;;;16.52;;
9388;SDS011;4734;52.778;6.798;2023-05-07T03:02:40;19.63;;;17.63;;
9388;SDS011;4734;52.778;6.798;2023-05-07T03:05:25;21.73;;;19.38;;
9388;SDS011;4734;52.778;6.798;2023-05-07T03:08:11;22.50;;;20.20;;
9388;SDS011;4734;52.778;6.798;2023-05-07T03:10:57;23.42;;;19.15;;
9388;SDS011;4734;52.778;6.798;2023-05-07T03:13:43;21.23;;;18.92;;
9388;SDS011;4734;52.778;6.798;2023-05-07T03:16:29;23.75;;;19.30;;
9388;SDS011;4734;52.778;6.798;2023-05-07T03:19:15;21.80;;;19.55;;
9388;SDS011;4734;52.778;6.798;2023-05-07T03:22:01;21.45;;;19.15;;
9388;SDS011;4734;52.778;6.798;2023-05-07T03:24:47;21.45;;;19.02;;
9388;SDS011;4734;52.778;6.798;2023-05-07T03:27:32;20.80;;;18.60;;
9388;SDS011;4734;52.778;6.798;2023-05-07T03:30:18;22.10;;;19.80;;
9388;SDS011;4734;52.778;6.798;2023-05-07T03:33:04;22.60;;;20.20;;
9388;SDS011;4734;52.778;6.798;2023-05-07T03:35:51;21.70;;;19.30;;
9388;SDS011;4734;52.778;6.798;2023-05-07T03:38:37;22.45;;;19.70;;
9388;SDS011;4734;52.778;6.798;2023-05-07T03:41:22;22.80;;;19.52;;
9388;SDS011;4734;52.778;6.798;2023-05-07T03:44:09;21.45;;;18.48;;
9388;SDS011;4734;52.778;6.798;2023-05-07T03:46:55;20.58;;;18.33;;
9388;SDS011;4734;52.778;6.798;2023-05-07T03:49:40;21.65;;;19.13;;
9388;SDS011;4734;52.778;6.798;2023-05-07T03:52:27;20.02;;;17.85;;
9388;SDS011;4734;52.778;6.798;2023-05-07T03:55:13;21.25;;;18.92;;
9388;SDS011;4734;52.778;6.798;2023-05-07T03:57:59;20.08;;;18.00;;
9388;SDS011;4734;52.778;6.798;2023-05-07T04:00:45;21.02;;;18.77;;
9388;SDS011;4734;52.778;6.798;2023-05-07T04:03:30;21.00;;;18.80;;
9388;SDS011;4734;52.778;6.798;2023-05-07T04:06:16;23.20;;;18.88;;
9388;SDS011;4734;52.778;6.798;2023-05-07T04:09:03;21.60;;;19.23;;
9388;SDS011;4734;52.778;6.798;2023-05-07T04:11:49;20.63;;;18.48;;
9388;SDS011;4734;52.778;6.798;2023-05-07T04:14:35;21.27;;;18.98;;
9388;SDS011;4734;52.778;6.798;2023-05-07T04:17:21;21.23;;;19.13;;
9388;SDS011;4734;52.778;6.798;2023-05-07T04:20:08;20.85;;;18.02;;
9388;SDS011;4734;52.778;6.798;2023-05-07T04:22:54;27.92;;;18.90;;
9388;SDS011;4734;52.778;6.798;2023-05-07T04:25:41;20.02;;;17.95;;
9388;SDS011;4734;52.778;6.798;2023-05-07T04:28:26;19.88;;;17.90;;
9388;SDS011;4734;52.778;6.798;2023-05-07T04:31:12;20.65;;;18.42;;
9388;SDS011;4734;52.778;6.798;2023-05-07T04:33:57;19.38;;;17.38;;
9388;SDS011;4734;52.778;6.798;2023-05-07T04:36:43;20.73;;;18.52;;
9388;SDS011;4734;52.778;6.798;2023-05-07T04:39:30;20.27;;;17.30;;
9388;SDS011;4734;52.778;6.798;2023-05-07T04:42:17;19.08;;;17.13;;
9388;SDS011;4734;52.778;6.798;2023-05-07T04:45:03;20.70;;;17.23;;
9388;SDS011;4734;52.778;6.798;2023-05-07T04:47:48;18.65;;;16.75;;
9388;SDS011;4734;52.778;6.798;2023-05-07T04:50:34;17.70;;;15.93;;
9388;SDS011;4734;52.778;6.798;2023-05-07T04:53:20;18.17;;;16.38;;
9388;SDS011;4734;52.778;6.798;2023-05-07T04:56:06;19.17;;;16.75;;
9388;SDS011;4734;52.778;6.798;2023-05-07T04:58:53;17.00;;;15.23;;
9388;SDS011;4734;52.778;6.798;2023-05-07T05:01:39;16.90;;;15.18;;
9388;SDS011;4734;52.778;6.798;2023-05-07T05:04:25;18.38;;;16.38;;
9388;SDS011;4734;52.778;6.798;2023-05-07T05:07:10;18.85;;;16.88;;
9388;SDS011;4734;52.778;6.798;2023-05-07T05:09:57;17.63;;;15.93;;
9388;SDS011;4734;52.778;6.798;2023-05-07T05:12:42;18.48;;;16.58;;
9388;SDS011;4734;52.778;6.798;2023-05-07T05:15:30;17.60;;;15.80;;
9388;SDS011;4734;52.778;6.798;2023-05-07T05:18:15;16.88;;;14.93;;
9388;SDS011;4734;52.778;6.798;2023-05-07T05:21:01;18.77;;;16.75;;
9388;SDS011;4734;52.778;6.798;2023-05-07T05:23:47;17.98;;;16.17;;
9388;SDS011;4734;52.778;6.798;2023-05-07T05:26:33;17.50;;;15.70;;
9388;SDS011;4734;52.778;6.798;2023-05-07T05:29:18;19.58;;;17.63;;
9388;SDS011;4734;52.778;6.798;2023-05-07T05:32:05;18.50;;;16.70;;
9388;SDS011;4734;52.778;6.798;2023-05-07T05:34:51;17.15;;;15.27;;
9388;SDS011;4734;52.778;6.798;2023-05-07T05:37:37;18.20;;;16.30;;
9388;SDS011;4734;52.778;6.798;2023-05-07T05:40:22;17.20;;;15.52;;
9388;SDS011;4734;52.778;6.798;2023-05-07T05:43:08;17.92;;;16.10;;
9388;SDS011;4734;52.778;6.798;2023-05-07T05:45:55;18.42;;;16.52;;
9388;SDS011;4734;52.778;6.798;2023-05-07T05:48:42;18.55;;;16.65;;
9388;SDS011;4734;52.778;6.798;2023-05-07T05:51:27;18.73;;;16.83;;
9388;SDS011;4734;52.778;6.798;2023-05-07T05:54:14;18.58;;;16.77;;
9388;SDS011;4734;52.778;6.798;2023-05-07T05:57:00;19.35;;;17.35;;
9388;SDS011;4734;52.778;6.798;2023-05-07T05:59:47;19.58;;;17.48;;
9388;SDS011;4734;52.778;6.798;2023-05-07T06:02:33;19.20;;;16.52;;
9388;SDS011;4734;52.778;6.798;2023-05-07T06:05:20;19.33;;;17.00;;
9388;SDS011;4734;52.778;6.798;2023-05-07T06:08:05;18.10;;;16.25;;
9388;SDS011;4734;52.778;6.798;2023-05-07T06:10:51;20.08;;;18.05;;
9388;SDS011;4734;52.778;6.798;2023-05-07T06:13:37;21.17;;;19.02;;
9388;SDS011;4734;52.778;6.798;2023-05-07T06:16:22;19.35;;;17.45;;
9388;SDS011;4734;52.778;6.798;2023-05-07T06:19:09;19.60;;;17.60;;
9388;SDS011;4734;52.778;6.798;2023-05-07T06:21:56;19.88;;;17.92;;
9388;SDS011;4734;52.778;6.798;2023-05-07T06:24:45;23.35;;;18.13;;
9388;SDS011;4734;52.778;6.798;2023-05-07T06:27:30;21.20;;;18.95;;
9388;SDS011;4734;52.778;6.798;2023-05-07T06:30:16;20.40;;;18.38;;
9388;SDS011;4734;52.778;6.798;2023-05-07T06:33:01;22.50;;;18.13;;
9388;SDS011;4734;52.778;6.798;2023-05-07T06:35:50;21.60;;;19.40;;
9388;SDS011;4734;52.778;6.798;2023-05-07T06:38:37;21.38;;;19.15;;
9388;SDS011;4734;52.778;6.798;2023-05-07T06:41:23;21.45;;;19.08;;
9388;SDS011;4734;52.778;6.798;2023-05-07T06:44:09;19.50;;;17.42;;
9388;SDS011;4734;52.778;6.798;2023-05-07T06:46:55;20.80;;;18.55;;
9388;SDS011;4734;52.778;6.798;2023-05-07T06:49:40;20.90;;;18.73;;
9388;SDS011;4734;52.778;6.798;2023-05-07T06:52:26;21.08;;;18.67;;
9388;SDS011;4734;52.778;6.798;2023-05-07T06:55:13;21.90;;;19.60;;
9388;SDS011;4734;52.778;6.798;2023-05-07T06:57:59;22.50;;;20.20;;
9388;SDS011;4734;52.778;6.798;2023-05-07T07:00:45;23.52;;;20.25;;
9388;SDS011;4734;52.778;6.798;2023-05-07T07:03:31;24.08;;;20.20;;
9388;SDS011;4734;52.778;6.798;2023-05-07T07:06:16;24.02;;;20.65;;
9388;SDS011;4734;52.778;6.798;2023-05-07T07:09:02;22.45;;;20.13;;
9388;SDS011;4734;52.778;6.798;2023-05-07T07:11:49;22.60;;;20.27;;
9388;SDS011;4734;52.778;6.798;2023-05-07T07:14:34;22.50;;;20.05;;
9388;SDS011;4734;52.778;6.798;2023-05-07T07:17:20;24.40;;;22.00;;
9388;SDS011;4734;52.778;6.798;2023-05-07T07:20:06;23.02;;;20.55;;
9388;SDS011;4734;52.778;6.798;2023-05-07T07:22:52;23.23;;;20.73;;
9388;SDS011;4734;52.778;6.798;2023-05-07T07:25:38;23.30;;;20.90;;
9388;SDS011;4734;52.778;6.798;2023-05-07T07:28:25;22.08;;;19.77;;
9388;SDS011;4734;52.778;6.798;2023-05-07T07:31:11;22.55;;;20.13;;
9388;SDS011;4734;52.778;6.798;2023-05-07T07:33:56;23.85;;;21.20;;
9388;SDS011;4734;52.778;6.798;2023-05-07T07:36:42;22.92;;;20.50;;
9388;SDS011;4734;52.778;6.798;2023-05-07T07:39:28;23.20;;;20.63;;
9388;SDS011;4734;52.778;6.798;2023-05-07T07:42:14;21.95;;;19.60;;
9388;SDS011;4734;52.778;6.798;2023-05-07T07:45:01;21.40;;;19.30;;
9388;SDS011;4734;52.778;6.798;2023-05-07T07:47:47;23.33;;;20.85;;
9388;SDS011;4734;52.778;6.798;2023-05-07T07:50:33;22.00;;;19.77;;
9388;SDS011;4734;52.778;6.798;2023-05-07T07:53:18;19.65;;;17.55;;
9388;SDS011;4734;52.778;6.798;2023-05-07T07:56:04;23.40;;;20.90;;
9388;SDS011;4734;52.778;6.798;2023-05-07T07:58:50;21.77;;;19.58;;
9388;SDS011;4734;52.778;6.798;2023-05-07T08:01:37;21.65;;;19.33;;
9388;SDS011;4734;52.778;6.798;2023-05-07T08:04:22;24.00;;;21.42;;
9388;SDS011;4734;52.778;6.798;2023-05-07T08:07:09;21.08;;;18.98;;
9388;SDS011;4734;52.778;6.798;2023-05-07T08:09:55;22.60;;;20.23;;
9388;SDS011;4734;52.778;6.798;2023-05-07T08:12:40;22.48;;;20.08;;
9388;SDS011;4734;52.778;6.798;2023-05-07T08:15:26;22.35;;;20.15;;
9388;SDS011;4734;52.778;6.798;2023-05-07T08:18:13;23.67;;;20.58;;
9388;SDS011;4734;52.778;6.798;2023-05-07T08:20:59;22.42;;;19.50;;
9388;SDS011;4734;52.778;6.798;2023-05-07T08:23:44;22.08;;;19.70;;
9388;SDS011;4734;52.778;6.798;2023-05-07T08:26:30;21.08;;;18.20;;
9388;SDS011;4734;52.778;6.798;2023-05-07T08:29:16;22.65;;;20.25;;
9388;SDS011;4734;52.778;6.798;2023-05-07T08:32:02;20.48;;;18.48;;
9388;SDS011;4734;52.778;6.798;2023-05-07T08:34:49;20.77;;;18.70;;
9388;SDS011;4734;52.778;6.798;2023-05-07T08:37:34;22.08;;;19.88;;
9388;SDS011;4734;52.778;6.798;2023-05-07T08:40:20;21.08;;;18.98;;
9388;SDS011;4734;52.778;6.798;2023-05-07T08:43:10;17.20;;;15.30;;
9388;SDS011;4734;52.778;6.798;2023-05-07T08:45:58;20.73;;;18.52;;
9388;SDS011;4734;52.778;6.798;2023-05-07T08:48:47;21.92;;;19.63;;
9388;SDS011;4734;52.778;6.798;2023-05-07T08:51:35;21.33;;;19.15;;
9388;SDS011;4734;52.778;6.798;2023-05-07T08:54:21;20.90;;;18.85;;
9388;SDS011;4734;52.778;6.798;2023-05-07T08:57:07;21.10;;;19.00;;
9388;SDS011;4734;52.778;6.798;2023-05-07T08:59:52;20.25;;;18.25;;
9388;SDS011;4734;52.778;6.798;2023-05-07T09:02:38;20.80;;;18.70;;
9388;SDS011;4734;52.778;6.798;2023-05-07T09:05:24;20.23;;;18.15;;
9388;SDS011;4734;52.778;6.798;2023-05-07T09:08:14;18.60;;;16.67;;
9388;SDS011;4734;52.778;6.798;2023-05-07T09:10:59;19.17;;;17.15;;
9388;SDS011;4734;52.778;6.798;2023-05-07T09:13:45;18.58;;;16.77;;
9388;SDS011;4734;52.778;6.798;2023-05-07T09:16:31;19.52;;;17.63;;
9388;SDS011;4734;52.778;6.798;2023-05-07T09:19:16;19.02;;;17.15;;
9388;SDS011;4734;52.778;6.798;2023-05-07T09:22:07;18.27;;;16.48;;
9388;SDS011;4734;52.778;6.798;2023-05-07T09:24:54;18.55;;;16.75;;
9388;SDS011;4734;52.778;6.798;2023-05-07T09:27:40;17.58;;;15.80;;
9388;SDS011;4734;52.778;6.798;2023-05-07T09:30:27;17.95;;;16.15;;
9388;SDS011;4734;52.778;6.798;2023-05-07T09:33:14;17.10;;;15.50;;
9388;SDS011;4734;52.778;6.798;2023-05-07T09:36:01;17.88;;;15.82;;
9388;SDS011;4734;52.778;6.798;2023-05-07T09:38:47;17.98;;;16.25;;
9388;SDS011;4734;52.778;6.798;2023-05-07T09:41:43;17.02;;;15.45;;
9388;SDS011;4734;52.778;6.798;2023-05-07T09:44:29;16.92;;;15.38;;
9388;SDS011;4734;52.778;6.798;2023-05-07T09:47:18;17.05;;;15.35;;
9388;SDS011;4734;52.778;6.798;2023-05-07T09:50:05;17.38;;;15.70;;
9388;SDS011;4734;52.778;6.798;2023-05-07T09:52:51;16.70;;;15.00;;
9388;SDS011;4734;52.778;6.798;2023-05-07T09:55:37;18.13;;;15.93;;
9388;SDS011;4734;52.778;6.798;2023-05-07T09:58:24;17.63;;;15.93;;
9388;SDS011;4734;52.778;6.798;2023-05-07T10:01:11;16.70;;;14.93;;
9388;SDS011;4734;52.778;6.798;2023-05-07T10:03:57;16.90;;;15.20;;
9388;SDS011;4734;52.778;6.798;2023-05-07T10:06:43;16.65;;;15.13;;
9388;SDS011;4734;52.778;6.798;2023-05-07T10:09:30;17.00;;;15.40;;
9388;SDS011;4734;52.778;6.798;2023-05-07T10:12:16;16.42;;;14.88;;
9388;SDS011;4734;52.778;6.798;2023-05-07T10:15:04;15.60;;;14.18;;
9388;SDS011;4734;52.778;6.798;2023-05-07T10:17:50;16.00;;;14.52;;
9388;SDS011;4734;52.778;6.798;2023-05-07T10:20:36;16.90;;;15.40;;
9388;SDS011;4734;52.778;6.798;2023-05-07T10:23:23;16.33;;;14.63;;
9388;SDS011;4734;52.778;6.798;2023-05-07T10:26:09;15.82;;;14.13;;
9388;SDS011;4734;52.778;6.798;2023-05-07T10:28:56;15.55;;;14.15;;
9388;SDS011;4734;52.778;6.798;2023-05-07T10:31:48;15.75;;;14.30;;
9388;SDS011;4734;52.778;6.798;2023-05-07T10:34:36;15.27;;;13.88;;
9388;SDS011;4734;52.778;6.798;2023-05-07T10:37:23;14.00;;;12.80;;
9388;SDS011;4734;52.778;6.798;2023-05-07T10:40:10;14.80;;;13.45;;
9388;SDS011;4734;52.778;6.798;2023-05-07T10:42:56;15.52;;;14.02;;
9388;SDS011;4734;52.778;6.798;2023-05-07T10:45:43;14.82;;;13.48;;
9388;SDS011;4734;52.778;6.798;2023-05-07T10:48:30;15.00;;;13.70;;
9388;SDS011;4734;52.778;6.798;2023-05-07T10:51:19;14.50;;;13.20;;
9388;SDS011;4734;52.778;6.798;2023-05-07T10:54:20;15.40;;;13.90;;
9388;SDS011;4734;52.778;6.798;2023-05-07T11:03:16;14.82;;;13.60;;
9388;SDS011;4734;52.778;6.798;2023-05-07T11:06:10;14.85;;;13.45;;
9388;SDS011;4734;52.778;6.798;2023-05-07T11:08:56;13.95;;;12.75;;
9388;SDS011;4734;52.778;6.798;2023-05-07T11:11:45;14.32;;;12.95;;
9388;SDS011;4734;52.778;6.798;2023-05-07T11:14:42;14.80;;;13.38;;
9388;SDS011;4734;52.778;6.798;2023-05-07T11:17:28;14.57;;;13.27;;
9388;SDS011;4734;52.778;6.798;2023-05-07T11:20:15;14.45;;;13.15;;
9388;SDS011;4734;52.778;6.798;2023-05-07T11:23:02;14.32;;;13.02;;
9388;SDS011;4734;52.778;6.798;2023-05-07T11:25:49;14.15;;;12.73;;
9388;SDS011;4734;52.778;6.798;2023-05-07T11:28:36;14.88;;;13.00;;
9388;SDS011;4734;52.778;6.798;2023-05-07T11:31:25;15.38;;;14.07;;
9388;SDS011;4734;52.778;6.798;2023-05-07T11:34:12;14.25;;;12.93;;
9388;SDS011;4734;52.778;6.798;2023-05-07T11:36:58;14.73;;;13.32;;
9388;SDS011;4734;52.778;6.798;2023-05-07T11:39:46;14.95;;;13.60;;
9388;SDS011;4734;52.778;6.798;2023-05-07T11:42:32;14.73;;;13.35;;
9388;SDS011;4734;52.778;6.798;2023-05-07T11:45:22;14.05;;;12.85;;
9388;SDS011;4734;52.778;6.798;2023-05-07T11:48:09;13.80;;;12.32;;
9388;SDS011;4734;52.778;6.798;2023-05-07T11:51:00;14.65;;;13.38;;
9388;SDS011;4734;52.778;6.798;2023-05-07T11:53:46;13.57;;;12.38;;
9388;SDS011;4734;52.778;6.798;2023-05-07T11:56:33;13.80;;;12.52;;
9388;SDS011;4734;52.778;6.798;2023-05-07T11:59:19;13.98;;;12.52;;
9388;SDS011;4734;52.778;6.798;2023-05-07T12:02:05;13.68;;;12.38;;
9388;SDS011;4734;52.778;6.798;2023-05-07T12:04:51;14.82;;;13.45;;
9388;SDS011;4734;52.778;6.798;2023-05-07T12:07:37;13.20;;;12.07;;
9388;SDS011;4734;52.778;6.798;2023-05-07T12:10:23;13.88;;;12.57;;
9388;SDS011;4734;52.778;6.798;2023-05-07T12:13:15;13.02;;;11.93;;
9388;SDS011;4734;52.778;6.798;2023-05-07T12:16:01;13.98;;;12.75;;
9388;SDS011;4734;52.778;6.798;2023-05-07T12:18:47;14.00;;;12.55;;
9388;SDS011;4734;52.778;6.798;2023-05-07T12:21:33;12.60;;;11.52;;
9388;SDS011;4734;52.778;6.798;2023-05-07T12:24:19;13.40;;;12.20;;
9388;SDS011;4734;52.778;6.798;2023-05-07T12:27:05;14.82;;;12.95;;
9388;SDS011;4734;52.778;6.798;2023-05-07T12:29:52;12.40;;;11.30;;
9388;SDS011;4734;52.778;6.798;2023-05-07T12:32:38;13.15;;;11.90;;
9388;SDS011;4734;52.778;6.798;2023-05-07T12:35:27;12.93;;;11.85;;
9388;SDS011;4734;52.778;6.798;2023-05-07T12:38:13;12.40;;;11.30;;
9388;SDS011;4734;52.778;6.798;2023-05-07T12:41:00;13.07;;;11.98;;
9388;SDS011;4734;52.778;6.798;2023-05-07T12:43:46;13.05;;;11.85;;
9388;SDS011;4734;52.778;6.798;2023-05-07T12:46:33;12.98;;;11.88;;
9388;SDS011;4734;52.778;6.798;2023-05-07T12:49:23;12.40;;;11.32;;
9388;SDS011;4734;52.778;6.798;2023-05-07T12:52:09;13.90;;;12.60;;
9388;SDS011;4734;52.778;6.798;2023-05-07T12:54:56;13.15;;;12.05;;
9388;SDS011;4734;52.778;6.798;2023-05-07T12:57:45;12.63;;;11.45;;
9388;SDS011;4734;52.778;6.798;2023-05-07T13:00:35;11.88;;;10.77;;
9388;SDS011;4734;52.778;6.798;2023-05-07T13:03:22;12.93;;;11.77;;
9388;SDS011;4734;52.778;6.798;2023-05-07T13:06:09;12.25;;;11.15;;
9388;SDS011;4734;52.778;6.798;2023-05-07T13:08:55;11.52;;;10.55;;
9388;SDS011;4734;52.778;6.798;2023-05-07T13:11:41;11.35;;;10.43;;
9388;SDS011;4734;52.778;6.798;2023-05-07T13:14:27;12.30;;;11.20;;
9388;SDS011;4734;52.778;6.798;2023-05-07T13:17:12;12.75;;;11.60;;
9388;SDS011;4734;52.778;6.798;2023-05-07T13:19:59;11.80;;;10.60;;
9388;SDS011;4734;52.778;6.798;2023-05-07T13:22:45;11.95;;;10.85;;
9388;SDS011;4734;52.778;6.798;2023-05-07T13:25:31;11.35;;;10.45;;
9388;SDS011;4734;52.778;6.798;2023-05-07T13:28:16;11.32;;;10.35;;
9388;SDS011;4734;52.778;6.798;2023-05-07T13:31:02;10.52;;;9.63;;
9388;SDS011;4734;52.778;6.798;2023-05-07T13:33:48;11.45;;;10.45;;
9388;SDS011;4734;52.778;6.798;2023-05-07T13:36:35;11.38;;;10.25;;
9388;SDS011;4734;52.778;6.798;2023-05-07T13:39:23;11.30;;;10.30;;
9388;SDS011;4734;52.778;6.798;2023-05-07T13:42:09;10.77;;;9.82;;
9388;SDS011;4734;52.778;6.798;2023-05-07T13:44:54;10.30;;;9.50;;
9388;SDS011;4734;52.778;6.798;2023-05-07T13:47:40;9.98;;;9.07;;
9388;SDS011;4734;52.778;6.798;2023-05-07T13:50:25;10.32;;;9.43;;
9388;SDS011;4734;52.778;6.798;2023-05-07T13:53:14;10.52;;;9.63;;
9388;SDS011;4734;52.778;6.798;2023-05-07T13:56:01;10.13;;;9.38;;
9388;SDS011;4734;52.778;6.798;2023-05-07T13:58:48;10.50;;;9.70;;
9388;SDS011;4734;52.778;6.798;2023-05-07T14:01:33;10.02;;;9.05;;
9388;SDS011;4734;52.778;6.798;2023-05-07T14:04:20;9.75;;;8.85;;
9388;SDS011;4734;52.778;6.798;2023-05-07T14:07:05;10.43;;;9.43;;
9388;SDS011;4734;52.778;6.798;2023-05-07T14:09:52;10.60;;;9.70;;
9388;SDS011;4734;52.778;6.798;2023-05-07T14:12:38;9.73;;;8.93;;
9388;SDS011;4734;52.778;6.798;2023-05-07T14:15:24;9.18;;;8.48;;
9388;SDS011;4734;52.778;6.798;2023-05-07T14:18:09;9.30;;;8.50;;
9388;SDS011;4734;52.778;6.798;2023-05-07T14:20:55;10.27;;;9.38;;
9388;SDS011;4734;52.778;6.798;2023-05-07T14:23:41;9.10;;;8.40;;
9388;SDS011;4734;52.778;6.798;2023-05-07T14:26:28;9.82;;;8.93;;
9388;SDS011;4734;52.778;6.798;2023-05-07T14:29:14;9.75;;;8.95;;
9388;SDS011;4734;52.778;6.798;2023-05-07T14:32:02;10.20;;;9.40;;
9388;SDS011;4734;52.778;6.798;2023-05-07T14:34:48;10.35;;;9.27;;
9388;SDS011;4734;52.778;6.798;2023-05-07T14:37:34;10.52;;;9.52;;
9388;SDS011;4734;52.778;6.798;2023-05-07T14:40:19;9.93;;;9.05;;
9388;SDS011;4734;52.778;6.798;2023-05-07T14:43:06;9.30;;;8.45;;
9388;SDS011;4734;52.778;6.798;2023-05-07T14:45:52;10.07;;;9.18;;
9388;SDS011;4734;52.778;6.798;2023-05-07T14:48:38;9.82;;;9.02;;
9388;SDS011;4734;52.778;6.798;2023-05-07T14:51:23;9.13;;;8.32;;
9388;SDS011;4734;52.778;6.798;2023-05-07T14:54:11;9.20;;;8.43;;
9388;SDS011;4734;52.778;6.798;2023-05-07T14:56:57;8.63;;;7.93;;
9388;SDS011;4734;52.778;6.798;2023-05-07T14:59:44;9.18;;;8.43;;
9388;SDS011;4734;52.778;6.798;2023-05-07T15:02:30;9.45;;;8.73;;
9388;SDS011;4734;52.778;6.798;2023-05-07T15:05:17;8.93;;;8.23;;
9388;SDS011;4734;52.778;6.798;2023-05-07T15:08:03;9.43;;;8.68;;
9388;SDS011;4734;52.778;6.798;2023-05-07T15:10:49;9.32;;;8.63;;
9388;SDS011;4734;52.778;6.798;2023-05-07T15:13:34;9.63;;;8.82;;
9388;SDS011;4734;52.778;6.798;2023-05-07T15:16:22;10.10;;;9.30;;
9388;SDS011;4734;52.778;6.798;2023-05-07T15:19:07;9.02;;;8.35;;
9388;SDS011;4734;52.778;6.798;2023-05-07T15:21:53;9.48;;;8.70;;
9388;SDS011;4734;52.778;6.798;2023-05-07T15:24:39;10.35;;;9.55;;
9388;SDS011;4734;52.778;6.798;2023-05-07T15:27:25;10.80;;;9.20;;
9388;SDS011;4734;52.778;6.798;2023-05-07T15:30:11;10.38;;;9.35;;
9388;SDS011;4734;52.778;6.798;2023-05-07T15:32:58;9.13;;;8.38;;
9388;SDS011;4734;52.778;6.798;2023-05-07T15:35:44;10.02;;;9.13;;
9388;SDS011;4734;52.778;6.798;2023-05-07T15:38:30;10.27;;;9.32;;
9388;SDS011;4734;52.778;6.798;2023-05-07T15:41:16;10.68;;;9.88;;
9388;SDS011;4734;52.778;6.798;2023-05-07T15:44:01;10.43;;;9.52;;
9388;SDS011;4734;52.778;6.798;2023-05-07T15:46:47;11.30;;;10.50;;
9388;SDS011;4734;52.778;6.798;2023-05-07T15:49:34;10.80;;;9.90;;
9388;SDS011;4734;52.778;6.798;2023-05-07T15:52:20;11.65;;;10.75;;
9388;SDS011;4734;52.778;6.798;2023-05-07T15:55:06;10.80;;;10.00;;
9388;SDS011;4734;52.778;6.798;2023-05-07T15:57:52;11.27;;;10.38;;
9388;SDS011;4734;52.778;6.798;2023-05-07T16:00:39;12.05;;;11.02;;
9388;SDS011;4734;52.778;6.798;2023-05-07T16:03:25;12.70;;;11.70;;
9388;SDS011;4734;52.778;6.798;2023-05-07T16:06:13;13.38;;;12.35;;
9388;SDS011;4734;52.778;6.798;2023-05-07T16:08:59;11.80;;;10.90;;
9388;SDS011;4734;52.778;6.798;2023-05-07T16:11:44;12.23;;;11.23;;
9388;SDS011;4734;52.778;6.798;2023-05-07T16:14:30;11.63;;;10.60;;
9388;SDS011;4734;52.778;6.798;2023-05-07T16:17:16;11.88;;;10.98;;
9388;SDS011;4734;52.778;6.798;2023-05-07T16:20:02;10.80;;;10.00;;
9388;SDS011;4734;52.778;6.798;2023-05-07T16:22:50;11.35;;;10.45;;
9388;SDS011;4734;52.778;6.798;2023-05-07T16:25:36;11.98;;;10.90;;
9388;SDS011;4734;52.778;6.798;2023-05-07T16:28:22;11.05;;;10.20;;
9388;SDS011;4734;52.778;6.798;2023-05-07T16:31:07;10.85;;;9.95;;
9388;SDS011;4734;52.778;6.798;2023-05-07T16:33:53;10.52;;;9.73;;
9388;SDS011;4734;52.778;6.798;2023-05-07T16:36:39;10.63;;;9.73;;
9388;SDS011;4734;52.778;6.798;2023-05-07T16:39:26;10.40;;;9.60;;
9388;SDS011;4734;52.778;6.798;2023-05-07T16:42:12;10.30;;;9.50;;
9388;SDS011;4734;52.778;6.798;2023-05-07T16:44:58;10.13;;;9.23;;
9388;SDS011;4734;52.778;6.798;2023-05-07T16:47:44;9.68;;;8.95;;
9388;SDS011;4734;52.778;6.798;2023-05-07T16:50:30;10.00;;;9.10;;
9388;SDS011;4734;52.778;6.798;2023-05-07T16:53:15;10.77;;;9.77;;